sensor_id;sensor_type;location;lat;lon;timestamp;P1;durP1;ratioP1;P2;durP2;ratioP2
66800;SDS011;53703;50.326;19.122;2024-03-07T00:01:58;9.40;;;5.10;;
66800;SDS011;53703;50.326;19.122;2024-03-07T00:04:33;10.60;;;5.60;;
66800;SDS011;53703;50.326;19.122;2024-03-07T00:07:07;10.90;;;5.40;;
66800;SDS011;53703;50.326;19.122;2024-03-07T00:09:40;10.00;;;5.10;;
66800;SDS011;53703;50.326;19.122;2024-03-07T00:12:13;8.20;;;4.70;;
66800;SDS011;53703;50.326;19.122;2024-03-07T00:14:47;9.70;;;5.20;;
66800;SDS011;53703;50.326;19.122;2024-03-07T00:17:20;10.40;;;5.50;;
66800;SDS011;53703;50.326;19.122;2024-03-07T00:19:54;9.90;;;5.70;;
66800;SDS011;53703;50.326;19.122;2024-03-07T00:22:28;12.80;;;6.40;;
66800;SDS011;53703;50.326;19.122;2024-03-07T00:25:01;9.50;;;5.60;;
66800;SDS011;53703;50.326;19.122;2024-03-07T00:27:36;10.70;;;5.40;;
66800;SDS011;53703;50.326;19.122;2024-03-07T00:30:10;8.90;;;5.20;;
66800;SDS011;53703;50.326;19.122;2024-03-07T00:32:49;9.30;;;4.80;;
66800;SDS011;53703;50.326;19.122;2024-03-07T00:35:23;8.90;;;5.00;;
66800;SDS011;53703;50.326;19.122;2024-03-07T00:37:57;10.50;;;5.10;;
66800;SDS011;53703;50.326;19.122;2024-03-07T00:40:31;9.50;;;5.40;;
66800;SDS011;53703;50.326;19.122;2024-03-07T00:43:04;9.30;;;5.20;;
66800;SDS011;53703;50.326;19.122;2024-03-07T00:45:38;11.00;;;5.60;;
66800;SDS011;53703;50.326;19.122;2024-03-07T00:48:11;10.60;;;5.40;;
66800;SDS011;53703;50.326;19.122;2024-03-07T00:50:45;9.70;;;5.30;;
66800;SDS011;53703;50.326;19.122;2024-03-07T00:53:18;10.10;;;5.80;;
66800;SDS011;53703;50.326;19.122;2024-03-07T00:55:52;9.80;;;5.40;;
66800;SDS011;53703;50.326;19.122;2024-03-07T00:58:25;10.70;;;5.70;;
66800;SDS011;53703;50.326;19.122;2024-03-07T01:00:59;10.70;;;5.00;;
66800;SDS011;53703;50.326;19.122;2024-03-07T01:03:33;10.50;;;6.00;;
66800;SDS011;53703;50.326;19.122;2024-03-07T01:06:06;10.30;;;5.90;;
66800;SDS011;53703;50.326;19.122;2024-03-07T01:08:41;9.40;;;4.90;;
66800;SDS011;53703;50.326;19.122;2024-03-07T01:11:14;12.40;;;5.90;;
66800;SDS011;53703;50.326;19.122;2024-03-07T01:13:47;11.60;;;5.80;;
66800;SDS011;53703;50.326;19.122;2024-03-07T01:16:21;11.30;;;5.70;;
66800;SDS011;53703;50.326;19.122;2024-03-07T01:18:54;12.00;;;6.20;;
66800;SDS011;53703;50.326;19.122;2024-03-07T01:21:28;10.50;;;5.80;;
66800;SDS011;53703;50.326;19.122;2024-03-07T01:24:05;10.60;;;5.80;;
66800;SDS011;53703;50.326;19.122;2024-03-07T01:26:39;9.60;;;5.40;;
66800;SDS011;53703;50.326;19.122;2024-03-07T01:29:13;11.40;;;5.90;;
66800;SDS011;53703;50.326;19.122;2024-03-07T01:31:46;10.30;;;5.90;;
66800;SDS011;53703;50.326;19.122;2024-03-07T01:34:20;10.50;;;6.20;;
66800;SDS011;53703;50.326;19.122;2024-03-07T01:36:53;11.60;;;6.00;;
66800;SDS011;53703;50.326;19.122;2024-03-07T01:39:27;10.10;;;5.80;;
66800;SDS011;53703;50.326;19.122;2024-03-07T01:42:00;13.60;;;6.50;;
66800;SDS011;53703;50.326;19.122;2024-03-07T01:44:33;11.60;;;6.40;;
66800;SDS011;53703;50.326;19.122;2024-03-07T01:47:07;11.30;;;5.70;;
66800;SDS011;53703;50.326;19.122;2024-03-07T01:49:41;11.80;;;6.00;;
66800;SDS011;53703;50.326;19.122;2024-03-07T01:52:14;12.80;;;6.20;;
66800;SDS011;53703;50.326;19.122;2024-03-07T01:54:49;10.80;;;5.80;;
66800;SDS011;53703;50.326;19.122;2024-03-07T01:57:22;11.70;;;6.20;;
66800;SDS011;53703;50.326;19.122;2024-03-07T01:59:56;12.40;;;6.10;;
66800;SDS011;53703;50.326;19.122;2024-03-07T02:02:31;11.90;;;5.90;;
66800;SDS011;53703;50.326;19.122;2024-03-07T02:05:06;10.10;;;5.70;;
66800;SDS011;53703;50.326;19.122;2024-03-07T02:07:39;11.40;;;5.80;;
66800;SDS011;53703;50.326;19.122;2024-03-07T02:10:14;12.50;;;6.00;;
66800;SDS011;53703;50.326;19.122;2024-03-07T02:12:48;13.90;;;6.50;;
66800;SDS011;53703;50.326;19.122;2024-03-07T02:15:22;11.20;;;5.80;;
66800;SDS011;53703;50.326;19.122;2024-03-07T02:17:55;11.00;;;5.80;;
66800;SDS011;53703;50.326;19.122;2024-03-07T02:20:29;9.50;;;5.90;;
66800;SDS011;53703;50.326;19.122;2024-03-07T02:23:02;13.30;;;6.10;;
66800;SDS011;53703;50.326;19.122;2024-03-07T02:25:36;11.10;;;6.10;;
66800;SDS011;53703;50.326;19.122;2024-03-07T02:28:09;10.90;;;6.10;;
66800;SDS011;53703;50.326;19.122;2024-03-07T02:30:43;11.20;;;6.30;;
66800;SDS011;53703;50.326;19.122;2024-03-07T02:33:16;16.30;;;5.70;;
66800;SDS011;53703;50.326;19.122;2024-03-07T02:35:50;11.90;;;6.10;;
66800;SDS011;53703;50.326;19.122;2024-03-07T02:38:24;11.90;;;5.70;;
66800;SDS011;53703;50.326;19.122;2024-03-07T02:40:57;10.90;;;5.90;;
66800;SDS011;53703;50.326;19.122;2024-03-07T02:43:32;12.10;;;6.20;;
66800;SDS011;53703;50.326;19.122;2024-03-07T02:46:08;11.70;;;5.90;;
66800;SDS011;53703;50.326;19.122;2024-03-07T02:48:42;12.30;;;6.20;;
66800;SDS011;53703;50.326;19.122;2024-03-07T02:51:15;11.00;;;5.90;;
66800;SDS011;53703;50.326;19.122;2024-03-07T02:53:49;13.80;;;6.60;;
66800;SDS011;53703;50.326;19.122;2024-03-07T02:56:23;11.80;;;6.20;;
66800;SDS011;53703;50.326;19.122;2024-03-07T02:58:56;12.50;;;6.40;;
66800;SDS011;53703;50.326;19.122;2024-03-07T03:01:33;11.40;;;6.00;;
66800;SDS011;53703;50.326;19.122;2024-03-07T03:04:07;13.20;;;6.50;;
66800;SDS011;53703;50.326;19.122;2024-03-07T03:06:40;13.00;;;6.20;;
66800;SDS011;53703;50.326;19.122;2024-03-07T03:09:14;13.70;;;6.40;;
66800;SDS011;53703;50.326;19.122;2024-03-07T03:11:49;12.70;;;6.80;;
66800;SDS011;53703;50.326;19.122;2024-03-07T03:14:22;12.60;;;6.20;;
66800;SDS011;53703;50.326;19.122;2024-03-07T03:16:56;12.90;;;6.50;;
66800;SDS011;53703;50.326;19.122;2024-03-07T03:19:29;12.60;;;6.50;;
66800;SDS011;53703;50.326;19.122;2024-03-07T03:22:03;11.90;;;6.60;;
66800;SDS011;53703;50.326;19.122;2024-03-07T03:24:39;13.90;;;6.80;;
66800;SDS011;53703;50.326;19.122;2024-03-07T03:27:12;13.50;;;6.60;;
66800;SDS011;53703;50.326;19.122;2024-03-07T03:29:45;12.40;;;6.20;;
66800;SDS011;53703;50.326;19.122;2024-03-07T03:32:21;13.60;;;6.70;;
66800;SDS011;53703;50.326;19.122;2024-03-07T03:34:55;12.30;;;6.70;;
66800;SDS011;53703;50.326;19.122;2024-03-07T03:37:28;13.10;;;6.80;;
66800;SDS011;53703;50.326;19.122;2024-03-07T03:40:02;11.50;;;6.40;;
66800;SDS011;53703;50.326;19.122;2024-03-07T03:42:37;13.70;;;6.80;;
66800;SDS011;53703;50.326;19.122;2024-03-07T03:45:11;13.00;;;6.40;;
66800;SDS011;53703;50.326;19.122;2024-03-07T03:47:46;11.90;;;6.30;;
66800;SDS011;53703;50.326;19.122;2024-03-07T03:50:20;11.40;;;6.40;;
66800;SDS011;53703;50.326;19.122;2024-03-07T03:52:54;11.30;;;6.20;;
66800;SDS011;53703;50.326;19.122;2024-03-07T03:55:28;11.00;;;6.50;;
66800;SDS011;53703;50.326;19.122;2024-03-07T03:58:03;12.80;;;6.50;;
66800;SDS011;53703;50.326;19.122;2024-03-07T04:00:37;12.50;;;6.80;;
66800;SDS011;53703;50.326;19.122;2024-03-07T04:03:11;12.20;;;6.20;;
66800;SDS011;53703;50.326;19.122;2024-03-07T04:05:44;12.10;;;6.60;;
66800;SDS011;53703;50.326;19.122;2024-03-07T04:08:18;12.60;;;6.50;;
66800;SDS011;53703;50.326;19.122;2024-03-07T04:10:51;10.40;;;5.70;;
66800;SDS011;53703;50.326;19.122;2024-03-07T04:13:25;14.20;;;6.20;;
66800;SDS011;53703;50.326;19.122;2024-03-07T04:15:58;12.90;;;6.50;;
66800;SDS011;53703;50.326;19.122;2024-03-07T04:18:32;11.30;;;6.70;;
66800;SDS011;53703;50.326;19.122;2024-03-07T04:21:05;12.50;;;6.70;;
66800;SDS011;53703;50.326;19.122;2024-03-07T04:23:41;12.70;;;6.60;;
66800;SDS011;53703;50.326;19.122;2024-03-07T04:26:17;13.00;;;6.70;;
66800;SDS011;53703;50.326;19.122;2024-03-07T04:28:50;10.00;;;6.10;;
66800;SDS011;53703;50.326;19.122;2024-03-07T04:31:24;11.60;;;6.10;;
66800;SDS011;53703;50.326;19.122;2024-03-07T04:33:57;12.10;;;6.60;;
66800;SDS011;53703;50.326;19.122;2024-03-07T04:36:30;12.30;;;6.40;;
66800;SDS011;53703;50.326;19.122;2024-03-07T04:39:05;12.60;;;6.60;;
66800;SDS011;53703;50.326;19.122;2024-03-07T04:41:55;10.70;;;6.60;;
66800;SDS011;53703;50.326;19.122;2024-03-07T04:44:30;10.70;;;6.20;;
66800;SDS011;53703;50.326;19.122;2024-03-07T04:47:06;10.30;;;6.30;;
66800;SDS011;53703;50.326;19.122;2024-03-07T04:49:39;12.80;;;6.90;;
66800;SDS011;53703;50.326;19.122;2024-03-07T04:52:14;11.80;;;6.20;;
66800;SDS011;53703;50.326;19.122;2024-03-07T04:54:47;13.10;;;6.50;;
66800;SDS011;53703;50.326;19.122;2024-03-07T04:57:21;11.10;;;6.10;;
66800;SDS011;53703;50.326;19.122;2024-03-07T04:59:55;11.50;;;6.70;;
66800;SDS011;53703;50.326;19.122;2024-03-07T05:02:28;11.90;;;6.50;;
66800;SDS011;53703;50.326;19.122;2024-03-07T05:05:02;12.40;;;6.60;;
66800;SDS011;53703;50.326;19.122;2024-03-07T05:07:36;13.60;;;6.90;;
66800;SDS011;53703;50.326;19.122;2024-03-07T05:10:11;13.20;;;6.70;;
66800;SDS011;53703;50.326;19.122;2024-03-07T05:12:44;12.20;;;6.80;;
66800;SDS011;53703;50.326;19.122;2024-03-07T05:15:19;12.40;;;7.00;;
66800;SDS011;53703;50.326;19.122;2024-03-07T05:17:56;13.00;;;7.00;;
66800;SDS011;53703;50.326;19.122;2024-03-07T05:20:30;12.00;;;6.40;;
66800;SDS011;53703;50.326;19.122;2024-03-07T05:23:03;11.90;;;6.90;;
66800;SDS011;53703;50.326;19.122;2024-03-07T05:25:37;13.10;;;7.00;;
66800;SDS011;53703;50.326;19.122;2024-03-07T05:28:10;15.40;;;7.00;;
66800;SDS011;53703;50.326;19.122;2024-03-07T05:30:44;12.80;;;6.90;;
66800;SDS011;53703;50.326;19.122;2024-03-07T05:33:18;12.60;;;6.80;;
66800;SDS011;53703;50.326;19.122;2024-03-07T05:35:52;13.50;;;7.10;;
66800;SDS011;53703;50.326;19.122;2024-03-07T05:38:44;12.50;;;6.50;;
66800;SDS011;53703;50.326;19.122;2024-03-07T05:41:17;12.50;;;7.00;;
66800;SDS011;53703;50.326;19.122;2024-03-07T05:43:51;13.40;;;7.40;;
66800;SDS011;53703;50.326;19.122;2024-03-07T05:46:24;12.30;;;6.20;;
66800;SDS011;53703;50.326;19.122;2024-03-07T05:48:58;13.10;;;7.20;;
66800;SDS011;53703;50.326;19.122;2024-03-07T05:51:32;12.00;;;6.50;;
66800;SDS011;53703;50.326;19.122;2024-03-07T05:54:06;14.70;;;7.60;;
66800;SDS011;53703;50.326;19.122;2024-03-07T05:56:39;14.70;;;7.60;;
66800;SDS011;53703;50.326;19.122;2024-03-07T05:59:13;11.90;;;6.80;;
66800;SDS011;53703;50.326;19.122;2024-03-07T06:01:48;14.20;;;7.50;;
66800;SDS011;53703;50.326;19.122;2024-03-07T06:04:22;14.20;;;7.40;;
66800;SDS011;53703;50.326;19.122;2024-03-07T06:06:56;12.60;;;7.20;;
66800;SDS011;53703;50.326;19.122;2024-03-07T06:09:30;13.50;;;7.20;;
66800;SDS011;53703;50.326;19.122;2024-03-07T06:12:04;12.80;;;7.30;;
66800;SDS011;53703;50.326;19.122;2024-03-07T06:14:52;12.40;;;7.20;;
66800;SDS011;53703;50.326;19.122;2024-03-07T06:17:26;14.00;;;7.10;;
66800;SDS011;53703;50.326;19.122;2024-03-07T06:19:59;14.80;;;7.30;;
66800;SDS011;53703;50.326;19.122;2024-03-07T06:22:33;12.80;;;7.30;;
66800;SDS011;53703;50.326;19.122;2024-03-07T06:25:08;11.60;;;6.70;;
66800;SDS011;53703;50.326;19.122;2024-03-07T06:27:49;11.50;;;6.90;;
66800;SDS011;53703;50.326;19.122;2024-03-07T06:30:23;14.40;;;7.30;;
66800;SDS011;53703;50.326;19.122;2024-03-07T06:32:56;13.90;;;7.30;;
66800;SDS011;53703;50.326;19.122;2024-03-07T06:35:30;13.40;;;7.40;;
66800;SDS011;53703;50.326;19.122;2024-03-07T06:38:08;13.40;;;7.50;;
66800;SDS011;53703;50.326;19.122;2024-03-07T06:40:42;14.50;;;7.50;;
66800;SDS011;53703;50.326;19.122;2024-03-07T06:43:15;12.70;;;7.10;;
66800;SDS011;53703;50.326;19.122;2024-03-07T06:45:49;12.50;;;7.40;;
66800;SDS011;53703;50.326;19.122;2024-03-07T06:48:22;12.90;;;6.70;;
66800;SDS011;53703;50.326;19.122;2024-03-07T06:50:56;13.00;;;7.20;;
66800;SDS011;53703;50.326;19.122;2024-03-07T06:53:30;13.30;;;6.70;;
66800;SDS011;53703;50.326;19.122;2024-03-07T06:56:04;13.10;;;7.50;;
66800;SDS011;53703;50.326;19.122;2024-03-07T06:58:38;13.10;;;7.60;;
66800;SDS011;53703;50.326;19.122;2024-03-07T07:01:13;13.40;;;7.20;;
66800;SDS011;53703;50.326;19.122;2024-03-07T07:03:47;11.20;;;7.00;;
66800;SDS011;53703;50.326;19.122;2024-03-07T07:06:20;12.60;;;7.20;;
66800;SDS011;53703;50.326;19.122;2024-03-07T07:08:54;11.30;;;6.70;;
66800;SDS011;53703;50.326;19.122;2024-03-07T07:11:29;14.10;;;7.50;;
66800;SDS011;53703;50.326;19.122;2024-03-07T07:14:05;13.70;;;7.20;;
66800;SDS011;53703;50.326;19.122;2024-03-07T07:16:38;13.40;;;7.00;;
66800;SDS011;53703;50.326;19.122;2024-03-07T07:19:16;13.70;;;7.30;;
66800;SDS011;53703;50.326;19.122;2024-03-07T07:21:49;12.50;;;7.20;;
66800;SDS011;53703;50.326;19.122;2024-03-07T07:24:24;13.80;;;6.80;;
66800;SDS011;53703;50.326;19.122;2024-03-07T07:26:59;12.40;;;7.20;;
66800;SDS011;53703;50.326;19.122;2024-03-07T07:29:33;15.30;;;7.50;;
66800;SDS011;53703;50.326;19.122;2024-03-07T07:32:07;16.40;;;7.40;;
66800;SDS011;53703;50.326;19.122;2024-03-07T07:34:43;15.80;;;7.80;;
66800;SDS011;53703;50.326;19.122;2024-03-07T07:37:19;12.60;;;7.20;;
66800;SDS011;53703;50.326;19.122;2024-03-07T07:39:53;12.70;;;7.20;;
66800;SDS011;53703;50.326;19.122;2024-03-07T07:42:26;13.80;;;7.00;;
66800;SDS011;53703;50.326;19.122;2024-03-07T07:45:00;12.40;;;6.90;;
66800;SDS011;53703;50.326;19.122;2024-03-07T07:47:35;13.70;;;7.20;;
66800;SDS011;53703;50.326;19.122;2024-03-07T07:50:12;18.70;;;7.30;;
66800;SDS011;53703;50.326;19.122;2024-03-07T07:52:49;13.30;;;7.70;;
66800;SDS011;53703;50.326;19.122;2024-03-07T07:55:25;14.60;;;7.70;;
66800;SDS011;53703;50.326;19.122;2024-03-07T07:58:00;12.40;;;6.90;;
66800;SDS011;53703;50.326;19.122;2024-03-07T08:00:34;11.50;;;6.80;;
66800;SDS011;53703;50.326;19.122;2024-03-07T08:03:08;15.30;;;7.60;;
66800;SDS011;53703;50.326;19.122;2024-03-07T08:05:41;13.60;;;7.20;;
66800;SDS011;53703;50.326;19.122;2024-03-07T08:08:16;13.80;;;7.80;;
66800;SDS011;53703;50.326;19.122;2024-03-07T08:10:51;13.90;;;7.20;;
66800;SDS011;53703;50.326;19.122;2024-03-07T08:13:24;13.30;;;6.80;;
66800;SDS011;53703;50.326;19.122;2024-03-07T08:15:58;14.70;;;7.20;;
66800;SDS011;53703;50.326;19.122;2024-03-07T08:18:31;12.60;;;6.90;;
66800;SDS011;53703;50.326;19.122;2024-03-07T08:21:05;13.30;;;7.20;;
66800;SDS011;53703;50.326;19.122;2024-03-07T08:23:41;11.30;;;6.50;;
66800;SDS011;53703;50.326;19.122;2024-03-07T08:26:15;11.70;;;7.10;;
66800;SDS011;53703;50.326;19.122;2024-03-07T08:28:48;12.60;;;6.90;;
66800;SDS011;53703;50.326;19.122;2024-03-07T08:31:22;12.00;;;6.90;;
66800;SDS011;53703;50.326;19.122;2024-03-07T08:33:56;12.30;;;7.40;;
66800;SDS011;53703;50.326;19.122;2024-03-07T08:36:30;12.90;;;7.20;;
66800;SDS011;53703;50.326;19.122;2024-03-07T08:39:04;15.50;;;7.50;;
66800;SDS011;53703;50.326;19.122;2024-03-07T08:41:41;11.50;;;6.60;;
66800;SDS011;53703;50.326;19.122;2024-03-07T08:44:17;13.00;;;7.10;;
66800;SDS011;53703;50.326;19.122;2024-03-07T08:46:50;13.40;;;6.90;;
66800;SDS011;53703;50.326;19.122;2024-03-07T08:49:23;13.00;;;6.70;;
66800;SDS011;53703;50.326;19.122;2024-03-07T08:51:57;14.70;;;7.80;;
66800;SDS011;53703;50.326;19.122;2024-03-07T08:54:32;14.50;;;8.00;;
66800;SDS011;53703;50.326;19.122;2024-03-07T08:57:05;12.20;;;7.20;;
66800;SDS011;53703;50.326;19.122;2024-03-07T08:59:39;12.30;;;7.40;;
66800;SDS011;53703;50.326;19.122;2024-03-07T09:02:12;13.00;;;7.30;;
66800;SDS011;53703;50.326;19.122;2024-03-07T09:04:45;11.90;;;6.80;;
66800;SDS011;53703;50.326;19.122;2024-03-07T09:07:19;13.20;;;7.40;;
66800;SDS011;53703;50.326;19.122;2024-03-07T09:09:52;13.40;;;7.30;;
66800;SDS011;53703;50.326;19.122;2024-03-07T09:12:26;13.10;;;7.40;;
66800;SDS011;53703;50.326;19.122;2024-03-07T09:14:59;13.40;;;7.30;;
66800;SDS011;53703;50.326;19.122;2024-03-07T09:17:33;15.30;;;8.70;;
66800;SDS011;53703;50.326;19.122;2024-03-07T09:20:08;14.10;;;7.60;;
66800;SDS011;53703;50.326;19.122;2024-03-07T09:22:46;14.30;;;7.40;;
66800;SDS011;53703;50.326;19.122;2024-03-07T09:25:20;16.00;;;7.50;;
66800;SDS011;53703;50.326;19.122;2024-03-07T09:27:55;12.10;;;7.00;;
66800;SDS011;53703;50.326;19.122;2024-03-07T09:30:28;14.30;;;6.90;;
66800;SDS011;53703;50.326;19.122;2024-03-07T09:33:02;13.80;;;7.20;;
66800;SDS011;53703;50.326;19.122;2024-03-07T09:35:36;12.90;;;7.10;;
66800;SDS011;53703;50.326;19.122;2024-03-07T09:38:09;13.60;;;6.90;;
66800;SDS011;53703;50.326;19.122;2024-03-07T09:40:43;12.90;;;7.30;;
66800;SDS011;53703;50.326;19.122;2024-03-07T09:43:17;13.50;;;7.50;;
66800;SDS011;53703;50.326;19.122;2024-03-07T09:45:53;15.80;;;7.70;;
66800;SDS011;53703;50.326;19.122;2024-03-07T09:48:27;13.60;;;7.00;;
66800;SDS011;53703;50.326;19.122;2024-03-07T09:51:01;13.70;;;7.50;;
66800;SDS011;53703;50.326;19.122;2024-03-07T09:53:37;13.80;;;8.00;;
66800;SDS011;53703;50.326;19.122;2024-03-07T09:56:11;14.20;;;7.80;;
66800;SDS011;53703;50.326;19.122;2024-03-07T09:58:46;13.80;;;7.60;;
66800;SDS011;53703;50.326;19.122;2024-03-07T10:01:24;14.40;;;7.70;;
66800;SDS011;53703;50.326;19.122;2024-03-07T10:04:01;14.70;;;7.80;;
66800;SDS011;53703;50.326;19.122;2024-03-07T10:06:42;14.60;;;7.40;;
66800;SDS011;53703;50.326;19.122;2024-03-07T10:09:17;13.50;;;8.00;;
66800;SDS011;53703;50.326;19.122;2024-03-07T10:11:58;15.10;;;8.00;;
66800;SDS011;53703;50.326;19.122;2024-03-07T10:14:34;15.00;;;7.80;;
66800;SDS011;53703;50.326;19.122;2024-03-07T10:17:08;16.70;;;7.60;;
66800;SDS011;53703;50.326;19.122;2024-03-07T10:19:47;13.50;;;7.80;;
66800;SDS011;53703;50.326;19.122;2024-03-07T10:22:23;14.00;;;8.10;;
66800;SDS011;53703;50.326;19.122;2024-03-07T10:24:57;15.40;;;8.00;;
66800;SDS011;53703;50.326;19.122;2024-03-07T10:27:31;14.40;;;8.00;;
66800;SDS011;53703;50.326;19.122;2024-03-07T10:30:09;14.30;;;8.00;;
66800;SDS011;53703;50.326;19.122;2024-03-07T10:32:53;15.00;;;8.60;;
66800;SDS011;53703;50.326;19.122;2024-03-07T10:35:30;14.50;;;8.50;;
66800;SDS011;53703;50.326;19.122;2024-03-07T10:38:04;13.60;;;7.80;;
66800;SDS011;53703;50.326;19.122;2024-03-07T10:40:39;13.40;;;7.80;;
66800;SDS011;53703;50.326;19.122;2024-03-07T10:43:14;14.00;;;7.60;;
66800;SDS011;53703;50.326;19.122;2024-03-07T10:45:50;17.40;;;8.40;;
66800;SDS011;53703;50.326;19.122;2024-03-07T10:48:29;13.00;;;7.30;;
66800;SDS011;53703;50.326;19.122;2024-03-07T10:51:14;15.10;;;7.50;;
66800;SDS011;53703;50.326;19.122;2024-03-07T10:53:59;12.50;;;7.40;;
66800;SDS011;53703;50.326;19.122;2024-03-07T10:56:49;15.90;;;8.40;;
66800;SDS011;53703;50.326;19.122;2024-03-07T11:02:14;13.80;;;7.80;;
66800;SDS011;53703;50.326;19.122;2024-03-07T11:04:52;13.00;;;7.60;;
66800;SDS011;53703;50.326;19.122;2024-03-07T11:07:27;13.40;;;7.50;;
66800;SDS011;53703;50.326;19.122;2024-03-07T11:10:01;15.60;;;7.80;;
66800;SDS011;53703;50.326;19.122;2024-03-07T11:12:42;17.60;;;8.40;;
66800;SDS011;53703;50.326;19.122;2024-03-07T11:15:17;14.00;;;8.30;;
66800;SDS011;53703;50.326;19.122;2024-03-07T11:17:53;16.40;;;7.90;;
66800;SDS011;53703;50.326;19.122;2024-03-07T11:20:33;17.00;;;8.40;;
66800;SDS011;53703;50.326;19.122;2024-03-07T11:23:27;21.50;;;8.90;;
66800;SDS011;53703;50.326;19.122;2024-03-07T11:26:05;23.90;;;10.60;;
66800;SDS011;53703;50.326;19.122;2024-03-07T11:28:41;34.80;;;12.30;;
66800;SDS011;53703;50.326;19.122;2024-03-07T11:31:26;30.20;;;11.80;;
66800;SDS011;53703;50.326;19.122;2024-03-07T11:34:16;37.70;;;14.10;;
66800;SDS011;53703;50.326;19.122;2024-03-07T11:36:50;42.70;;;16.00;;
66800;SDS011;53703;50.326;19.122;2024-03-07T11:39:42;38.40;;;14.90;;
66800;SDS011;53703;50.326;19.122;2024-03-07T11:42:26;45.10;;;15.40;;
66800;SDS011;53703;50.326;19.122;2024-03-07T11:45:02;35.20;;;14.50;;
66800;SDS011;53703;50.326;19.122;2024-03-07T11:47:38;38.90;;;14.70;;
66800;SDS011;53703;50.326;19.122;2024-03-07T11:50:12;39.70;;;15.00;;
66800;SDS011;53703;50.326;19.122;2024-03-07T11:52:50;40.50;;;15.40;;
66800;SDS011;53703;50.326;19.122;2024-03-07T11:55:25;35.10;;;13.70;;
66800;SDS011;53703;50.326;19.122;2024-03-07T11:57:59;32.40;;;13.80;;
66800;SDS011;53703;50.326;19.122;2024-03-07T12:00:35;34.10;;;14.50;;
66800;SDS011;53703;50.326;19.122;2024-03-07T12:03:13;31.20;;;12.40;;
66800;SDS011;53703;50.326;19.122;2024-03-07T12:05:48;33.90;;;14.20;;
66800;SDS011;53703;50.326;19.122;2024-03-07T12:08:23;30.30;;;13.20;;
66800;SDS011;53703;50.326;19.122;2024-03-07T12:10:59;29.20;;;13.00;;
66800;SDS011;53703;50.326;19.122;2024-03-07T12:13:37;31.10;;;13.50;;
66800;SDS011;53703;50.326;19.122;2024-03-07T12:16:11;32.20;;;14.00;;
66800;SDS011;53703;50.326;19.122;2024-03-07T12:18:46;28.50;;;12.90;;
66800;SDS011;53703;50.326;19.122;2024-03-07T12:21:21;28.00;;;12.60;;
66800;SDS011;53703;50.326;19.122;2024-03-07T12:23:58;29.40;;;13.20;;
66800;SDS011;53703;50.326;19.122;2024-03-07T12:26:42;33.40;;;13.70;;
66800;SDS011;53703;50.326;19.122;2024-03-07T12:29:18;28.50;;;13.30;;
66800;SDS011;53703;50.326;19.122;2024-03-07T12:31:57;32.80;;;13.30;;
66800;SDS011;53703;50.326;19.122;2024-03-07T12:34:31;29.20;;;13.00;;
66800;SDS011;53703;50.326;19.122;2024-03-07T12:37:07;29.70;;;12.80;;
66800;SDS011;53703;50.326;19.122;2024-03-07T12:39:42;30.20;;;12.30;;
66800;SDS011;53703;50.326;19.122;2024-03-07T12:42:18;26.80;;;12.00;;
66800;SDS011;53703;50.326;19.122;2024-03-07T12:44:52;30.50;;;13.10;;
66800;SDS011;53703;50.326;19.122;2024-03-07T12:47:26;29.60;;;12.40;;
66800;SDS011;53703;50.326;19.122;2024-03-07T12:49:59;32.00;;;12.80;;
66800;SDS011;53703;50.326;19.122;2024-03-07T12:52:38;31.40;;;13.10;;
66800;SDS011;53703;50.326;19.122;2024-03-07T12:55:17;27.60;;;12.10;;
66800;SDS011;53703;50.326;19.122;2024-03-07T12:57:52;27.40;;;12.00;;
66800;SDS011;53703;50.326;19.122;2024-03-07T13:00:25;29.70;;;13.30;;
66800;SDS011;53703;50.326;19.122;2024-03-07T13:03:00;26.00;;;12.00;;
66800;SDS011;53703;50.326;19.122;2024-03-07T13:05:34;29.40;;;11.50;;
66800;SDS011;53703;50.326;19.122;2024-03-07T13:08:11;24.10;;;11.40;;
66800;SDS011;53703;50.326;19.122;2024-03-07T13:10:45;26.40;;;12.20;;
66800;SDS011;53703;50.326;19.122;2024-03-07T13:13:21;31.30;;;12.80;;
66800;SDS011;53703;50.326;19.122;2024-03-07T13:15:54;28.10;;;12.60;;
66800;SDS011;53703;50.326;19.122;2024-03-07T13:18:28;25.70;;;11.30;;
66800;SDS011;53703;50.326;19.122;2024-03-07T13:21:04;24.70;;;11.50;;
66800;SDS011;53703;50.326;19.122;2024-03-07T13:23:41;27.90;;;12.60;;
66800;SDS011;53703;50.326;19.122;2024-03-07T13:26:16;24.90;;;10.90;;
66800;SDS011;53703;50.326;19.122;2024-03-07T13:28:55;25.00;;;11.50;;
66800;SDS011;53703;50.326;19.122;2024-03-07T13:31:31;26.20;;;11.80;;
66800;SDS011;53703;50.326;19.122;2024-03-07T13:34:04;25.10;;;11.20;;
66800;SDS011;53703;50.326;19.122;2024-03-07T13:36:43;26.10;;;11.60;;
66800;SDS011;53703;50.326;19.122;2024-03-07T13:39:17;21.90;;;11.00;;
66800;SDS011;53703;50.326;19.122;2024-03-07T13:41:50;27.00;;;11.50;;
66800;SDS011;53703;50.326;19.122;2024-03-07T13:44:25;26.80;;;11.20;;
66800;SDS011;53703;50.326;19.122;2024-03-07T13:47:00;26.00;;;11.20;;
66800;SDS011;53703;50.326;19.122;2024-03-07T13:49:36;26.80;;;11.20;;
66800;SDS011;53703;50.326;19.122;2024-03-07T13:52:09;23.30;;;11.00;;
66800;SDS011;53703;50.326;19.122;2024-03-07T13:54:49;25.20;;;11.30;;
66800;SDS011;53703;50.326;19.122;2024-03-07T13:57:29;24.50;;;11.50;;
66800;SDS011;53703;50.326;19.122;2024-03-07T14:00:25;22.00;;;11.10;;
66800;SDS011;53703;50.326;19.122;2024-03-07T14:03:47;21.20;;;10.70;;
66800;SDS011;53703;50.326;19.122;2024-03-07T14:06:48;28.20;;;10.90;;
66800;SDS011;53703;50.326;19.122;2024-03-07T14:09:59;24.20;;;11.20;;
66800;SDS011;53703;50.326;19.122;2024-03-07T14:13:02;24.50;;;11.40;;
66800;SDS011;53703;50.326;19.122;2024-03-07T14:16:25;23.20;;;11.30;;
66800;SDS011;53703;50.326;19.122;2024-03-07T14:19:58;22.80;;;10.40;;
66800;SDS011;53703;50.326;19.122;2024-03-07T14:23:11;21.40;;;10.50;;
66800;SDS011;53703;50.326;19.122;2024-03-07T14:26:09;22.10;;;11.00;;
66800;SDS011;53703;50.326;19.122;2024-03-07T14:29:12;20.70;;;10.30;;
66800;SDS011;53703;50.326;19.122;2024-03-07T14:31:52;22.10;;;10.60;;
66800;SDS011;53703;50.326;19.122;2024-03-07T14:34:33;18.90;;;9.80;;
66800;SDS011;53703;50.326;19.122;2024-03-07T14:37:22;23.40;;;10.30;;
66800;SDS011;53703;50.326;19.122;2024-03-07T14:40:08;19.30;;;10.10;;
66800;SDS011;53703;50.326;19.122;2024-03-07T14:42:46;22.10;;;10.40;;
66800;SDS011;53703;50.326;19.122;2024-03-07T14:45:21;22.20;;;10.50;;
66800;SDS011;53703;50.326;19.122;2024-03-07T14:47:59;18.70;;;9.30;;
66800;SDS011;53703;50.326;19.122;2024-03-07T14:50:34;21.10;;;10.80;;
66800;SDS011;53703;50.326;19.122;2024-03-07T14:53:09;21.30;;;10.30;;
66800;SDS011;53703;50.326;19.122;2024-03-07T14:55:43;18.80;;;9.50;;
66800;SDS011;53703;50.326;19.122;2024-03-07T14:58:18;17.80;;;9.40;;
66800;SDS011;53703;50.326;19.122;2024-03-07T15:00:51;19.40;;;9.10;;
66800;SDS011;53703;50.326;19.122;2024-03-07T15:03:28;18.10;;;9.50;;
66800;SDS011;53703;50.326;19.122;2024-03-07T15:06:03;21.30;;;9.40;;
66800;SDS011;53703;50.326;19.122;2024-03-07T15:08:39;17.50;;;9.30;;
66800;SDS011;53703;50.326;19.122;2024-03-07T15:11:19;17.80;;;8.80;;
66800;SDS011;53703;50.326;19.122;2024-03-07T15:14:03;16.20;;;8.90;;